Currently 105°F in Hemet, California, USA
105°F
106°F / 76°F
4 mph NW
0.00"
Friday, August 14, 2020 3:10 PM PDT

Hemet, California Weather Summary
Last 36 Hours

Temperature Winds Hourly Humidity Dewpoint
Time Report Norm Report Norm Max Gusts Precip. Rpt. Norm Rpt. Norm Pressure
1Fri 03:10 PM  104.9°F  94°F  4 mph NW  3 mph  13 mph  0.00"  13%  21%  43°F  47°F  29.85"
2Fri 03:01 PM  105.6°F  94°F  3 mph W  3 mph  10 mph  ----  15%  21%  47°F  47°F  29.85"
Fri 03:00 PM  105.4°F  94°F  2 mph W  3 mph  10 mph  0.00"  14%  21%  45°F  47°F  29.85"
Fri 02:00 PM  104.4°F  93°F  2 mph NW  3 mph  12 mph  0.00"  14%  22%  44°F  47°F  29.86"
Fri 01:00 PM  101.7°F  91°F  4 mph SW  2 mph  8 mph  0.00"  15%  24%  44°F  48°F  29.88"
Fri 12:00 PM  98.1°F  88°F  1 mph W  2 mph  7 mph  0.00"  18%  28%  46°F  50°F  29.90"
Fri 11:00 AM  94.5°F  84°F  2 mph SW  1 mph  5 mph  0.00"  19%  34%  44°F  52°F  29.91"
Fri 10:00 AM  89.4°F  80°F  calm  1 mph  3 mph  0.00"  26%  40%  49°F  53°F  29.92"
Fri 09:00 AM  83.7°F  75°F  calm  calm  none  0.00"  34%  48%  51°F  53°F  29.91"
Fri 08:00 AM  81.1°F  71°F  calm  calm  none  0.00"  27%  53%  43°F  52°F  29.90"
Fri 07:00 AM  77.0°F  67°F  calm  calm  none  0.00"  31%  54%  43°F  49°F  29.88"
Fri 06:00 AM  76.1°F  67°F  calm  calm  none  0.00"  31%  54%  42°F  49°F  29.87"
3Fri 05:22 AM  75.7°F  67°F  calm  calm  none  ----  31%  54%  42°F  49°F  29.85"
Fri 05:00 AM  77.0°F  67°F  calm  calm  none  0.00"  31%  55%  43°F  49°F  29.85"
Fri 04:00 AM  78.3°F  67°F  calm  calm  none  0.00"  28%  55%  41°F  50°F  29.84"
Fri 03:00 AM  76.6°F  68°F  calm  calm  none  0.00"  28%  54%  40°F  50°F  29.84"
Fri 02:00 AM  77.4°F  69°F  calm  calm  none  0.00"  28%  53%  41°F  50°F  29.86"
Fri 01:00 AM  78.4°F  70°F  calm  calm  none  0.00"  26%  51%  39°F  50°F  29.87"
Fri 12:00 AM  79.2°F  71°F  calm  calm  none  0.00"  25%  50%  39°F  51°F  29.87"
Thu 11:00 PM  79.3°F  73°F  calm  calm  none  0.00"  26%  48%  40°F  51°F  29.88"
Thu 10:00 PM  84.0°F  75°F  calm  calm  none  0.00"  22%  44%  40°F  51°F  29.89"
Thu 09:00 PM  85.5°F  78°F  calm  calm  none  0.00"  19%  40%  37°F  50°F  29.87"
Thu 08:00 PM  88.5°F  81°F  calm  1 mph  none  0.00"  17%  35%  37°F  50°F  29.86"
Thu 07:00 PM  95.4°F  87°F  calm  1 mph  6 mph  0.00"  19%  30%  45°F  50°F  29.85"
Thu 06:00 PM  93.9°F  90°F  1 mph W  3 mph  12 mph  0.00"  21%  26%  47°F  50°F  29.85"
Thu 05:00 PM  97.5°F  93°F  2 mph W  4 mph  12 mph  0.00"  18%  24%  45°F  49°F  29.85"
Thu 04:00 PM  100.9°F  94°F  5 mph W  4 mph  10 mph  0.00"  16%  21%  45°F  48°F  29.84"
Thu 03:00 PM  100.4°F  94°F  4 mph W  3 mph  12 mph  0.00"  15%  21%  43°F  47°F  29.85"
Thu 02:00 PM  101.5°F  93°F  3 mph SW  3 mph  9 mph  0.00"  14%  22%  42°F  47°F  29.86"
Thu 01:00 PM  99.9°F  91°F  1 mph SW  2 mph  10 mph  0.00"  16%  24%  44°F  48°F  29.87"
Thu 12:00 PM  97.5°F  88°F  2 mph W  2 mph  8 mph  0.00"  13%  28%  37°F  50°F  29.89"
Thu 11:00 AM  94.3°F  84°F  calm  1 mph  3 mph  0.00"  18%  33%  43°F  51°F  29.89"
Thu 10:00 AM  86.4°F  80°F  calm  1 mph  3 mph  0.00"  24%  40%  44°F  52°F  29.91"
Thu 09:00 AM  82.9°F  75°F  calm  calm  none  0.00"  33%  48%  50°F  53°F  29.90"
Thu 08:00 AM  77.7°F  71°F  calm  calm  none  0.00"  28%  53%  41°F  52°F  29.90"
Thu 07:00 AM  75.4°F  67°F  calm  calm  none  0.00"  29%  55%  40°F  49°F  29.89"
Thu 06:00 AM  74.7°F  66°F  calm  calm  none  0.00"  28%  54%  38°F  49°F  29.89"
Thu 05:00 AM  73.8°F  67°F  calm  calm  none  0.00"  31%  55%  40°F  49°F  29.90"
Thu 04:00 AM  73.2°F  67°F  calm  calm  none  0.00"  38%  55%  45°F  50°F  29.89"

  1. Current weather data. No green row appears if the current weather data is also the high or low for the current day.
  2. High temperature for the current day.
  3. Low temperature for the current day.

The Hemet weather pages are a service of WeatherCurrents. Hemet, California is located in the San Jacinto Valley, in western Riverside County, at the foot of the San Jacinto mountains.
Copyright ©2020  WeatherCurrents. All rights reserved. - Submit questions and comments - Privacy Policy

This page automatically refreshes every 10 minutes.